Time;durP1;ratioP1;P1;durP2;ratioP2;P2;SDS_P1;SDS_P2;PMS_P1;PMS_P2;Temp;Humidity;BMP_temperature;BMP_pressure;BME280_temperature;BME280_humidity;BME280_pressure;Samples;Min_cycle;Max_cycle;Signal;HPM_P1;HPM_P2
2023/03/08 00:02:17;;;;;;;;;;;15.60;57.80;;;;;;10171599;28;93424;-65
2023/03/08 00:07:18;;;;;;;;;;;15.60;57.80;;;;;;10172553;28;94466;-65
2023/03/08 00:12:21;;;;;;;;;;;15.60;57.80;;;;;;10155181;28;93889;-65
2023/03/08 00:17:23;;;;;;;;;;;15.60;57.80;;;;;;10172890;28;92776;-65
2023/03/08 00:22:25;;;;;;;;;;;15.50;57.60;;;;;;10172088;28;94301;-65
2023/03/08 00:27:26;;;;;;;;;;;15.50;57.50;;;;;;10170968;28;93551;-65
2023/03/08 00:32:28;;;;;;;;;;;15.50;57.30;;;;;;10152106;28;95867;-65
2023/03/08 00:37:30;;;;;;;;;;;15.50;57.20;;;;;;10171849;28;93676;-65
2023/03/08 00:42:32;;;;;;;;;;;15.50;57.20;;;;;;10170821;28;92701;-65
2023/03/08 00:47:34;;;;;;;;;;;15.40;57.10;;;;;;10170296;28;94643;-65
2023/03/08 00:52:36;;;;;;;;;;;15.40;57.10;;;;;;10171072;28;93987;-65
2023/03/08 00:57:38;;;;;;;;;;;15.40;57.10;;;;;;10170603;28;93463;-65
2023/03/08 01:02:39;;;;;;;;;;;15.40;57.10;;;;;;10170868;28;94458;-65
2023/03/08 01:07:41;;;;;;;;;;;15.40;56.90;;;;;;10171069;28;92754;-65
2023/03/08 01:12:43;;;;;;;;;;;15.40;56.80;;;;;;10170224;28;94515;-65
2023/03/08 01:17:45;;;;;;;;;;;15.40;56.70;;;;;;10170702;28;94034;-65
2023/03/08 01:22:46;;;;;;;;;;;15.40;56.70;;;;;;10167668;28;96949;-65
2023/03/08 01:27:48;;;;;;;;;;;15.30;56.60;;;;;;10170214;28;92577;-65
2023/03/08 01:32:50;;;;;;;;;;;15.30;56.60;;;;;;10169748;28;93871;-65
2023/03/08 01:37:52;;;;;;;;;;;15.30;56.70;;;;;;10168550;28;93978;-65
2023/03/08 01:42:54;;;;;;;;;;;15.30;56.70;;;;;;10170177;28;94586;-65
2023/03/08 01:47:55;;;;;;;;;;;15.30;56.60;;;;;;10169134;28;93296;-65
2023/03/08 01:52:57;;;;;;;;;;;15.30;56.40;;;;;;10151576;28;92915;-65
2023/03/08 01:57:59;;;;;;;;;;;15.30;56.40;;;;;;10169154;28;91773;-64
2023/03/08 02:03:03;;;;;;;;;;;15.30;56.20;;;;;;10168896;28;93458;-65
2023/03/08 02:08:04;;;;;;;;;;;15.30;56.20;;;;;;10168354;28;93560;-65
2023/03/08 02:13:08;;;;;;;;;;;15.30;56.30;;;;;;10166798;28;96240;-65
2023/03/08 02:18:09;;;;;;;;;;;15.20;56.30;;;;;;10168416;28;94517;-65
2023/03/08 02:23:16;;;;;;;;;;;15.20;56.30;;;;;;10151375;28;93492;-65
2023/03/08 02:28:18;;;;;;;;;;;15.20;56.20;;;;;;10167154;28;93922;-65
2023/03/08 02:33:20;;;;;;;;;;;15.30;56.10;;;;;;10168905;28;93718;-65
2023/03/08 02:38:21;;;;;;;;;;;15.20;56.00;;;;;;10168304;28;94142;-65
2023/03/08 02:43:23;;;;;;;;;;;15.30;57.00;;;;;;10149928;28;93396;-65
2023/03/08 02:48:25;;;;;;;;;;;15.20;56.00;;;;;;10167381;28;92741;-65
2023/03/08 02:53:26;;;;;;;;;;;15.20;55.90;;;;;;10168843;28;93526;-65
2023/03/08 02:58:28;;;;;;;;;;;15.20;56.00;;;;;;10169160;28;94296;-65
2023/03/08 03:03:30;;;;;;;;;;;15.10;56.00;;;;;;10165124;28;96038;-65
2023/03/08 03:08:32;;;;;;;;;;;15.20;56.10;;;;;;10167530;28;94482;-65
2023/03/08 03:13:34;;;;;;;;;;;15.20;56.00;;;;;;10166892;28;94469;-65
2023/03/08 03:18:36;;;;;;;;;;;15.20;55.90;;;;;;10167124;28;93312;-65
2023/03/08 03:23:38;;;;;;;;;;;15.20;55.90;;;;;;10165818;28;93531;-65
2023/03/08 03:28:40;;;;;;;;;;;15.20;55.80;;;;;;10165906;28;93269;-65
2023/03/08 03:33:42;;;;;;;;;;;15.20;55.70;;;;;;10166627;28;94449;-65
2023/03/08 03:38:44;;;;;;;;;;;15.20;55.70;;;;;;10168018;28;93846;-65
2023/03/08 03:43:46;;;;;;;;;;;15.10;55.70;;;;;;10149687;28;95002;-65
2023/03/08 03:48:48;;;;;;;;;;;15.10;55.70;;;;;;10165890;28;94450;-65
2023/03/08 03:53:49;;;;;;;;;;;15.20;55.70;;;;;;10163942;28;95861;-64
2023/03/08 03:58:52;;;;;;;;;;;15.10;55.60;;;;;;10165912;28;94486;-65
2023/03/08 04:03:54;;;;;;;;;;;15.20;55.50;;;;;;10170533;28;93388;-65
2023/03/08 04:09:00;;;;;;;;;;;15.10;55.50;;;;;;10171400;28;93541;-65
2023/03/08 04:14:01;;;;;;;;;;;15.10;55.50;;;;;;10154854;28;93561;-65
2023/03/08 04:19:05;;;;;;;;;;;15.10;55.40;;;;;;10156282;28;93489;-65
2023/03/08 04:24:07;;;;;;;;;;;15.10;55.50;;;;;;10139026;28;93371;-65
2023/03/08 04:29:09;;;;;;;;;;;15.10;55.60;;;;;;10173176;28;93720;-65
2023/03/08 04:34:11;;;;;;;;;;;15.10;55.50;;;;;;10171446;28;93754;-64
2023/03/08 04:39:12;;;;;;;;;;;15.10;55.40;;;;;;10154185;28;93100;-64
2023/03/08 04:44:14;;;;;;;;;;;15.10;55.40;;;;;;10168901;28;95158;-65
2023/03/08 06:06:14;;;;;;;;;;;15.70;54.50;;;;;;10161010;28;92971;-72
2023/03/08 06:11:16;;;;;;;;;;;15.90;53.90;;;;;;10135862;28;93241;-72
2023/03/08 06:16:17;;;;;;;;;;;16.10;53.50;;;;;;10152238;28;94472;-72
2023/03/08 06:21:22;;;;;;;;;;;16.30;53.20;;;;;;10168689;28;93808;-72
2023/03/08 06:26:24;;;;;;;;;;;16.40;53.00;;;;;;10169131;28;94805;-72
2023/03/08 06:31:25;;;;;;;;;;;16.60;52.80;;;;;;10168594;28;94528;-73
2023/03/08 06:36:27;;;;;;;;;;;16.70;53.50;;;;;;10167627;28;94403;-73
2023/03/08 06:41:29;;;;;;;;;;;16.80;52.30;;;;;;10164618;28;96043;-72
2023/03/08 06:46:30;;;;;;;;;;;16.80;52.20;;;;;;10167224;28;94657;-73
2023/03/08 06:51:32;;;;;;;;;;;16.70;52.20;;;;;;10167800;28;94511;-74
2023/03/08 06:56:34;;;;;;;;;;;16.60;52.30;;;;;;10167679;28;93854;-74
2023/03/08 07:01:35;;;;;;;;;;;16.60;52.30;;;;;;10166301;28;93370;-72
2023/03/08 07:06:37;;;;;;;;;;;16.50;52.60;;;;;;10167750;28;92827;-74
2023/03/08 07:11:39;;;;;;;;;;;16.50;53.20;;;;;;10168385;28;94587;-73
2023/03/08 07:16:41;;;;;;;;;;;16.50;53.90;;;;;;10166923;28;93333;-73
2023/03/08 07:21:43;;;;;;;;;;;16.40;53.40;;;;;;10166708;28;94592;-73
2023/03/08 07:26:45;;;;;;;;;;;16.30;53.30;;;;;;10167338;28;93858;-73
2023/03/08 07:31:46;;;;;;;;;;;16.20;53.40;;;;;;10163168;28;96701;-73
2023/03/08 07:36:49;;;;;;;;;;;16.10;53.50;;;;;;10150831;28;93507;-73
2023/03/08 07:41:51;;;;;;;;;;;16.10;53.80;;;;;;10173288;28;94381;-73
2023/03/08 07:46:53;;;;;;;;;;;16.00;53.80;;;;;;10155472;28;93755;-73
2023/03/08 07:51:54;;;;;;;;;;;15.90;53.90;;;;;;10172764;28;93285;-73
2023/03/08 07:56:56;;;;;;;;;;;15.90;54.00;;;;;;10171733;28;93475;-73
2023/03/08 08:01:58;;;;;;;;;;;15.80;54.00;;;;;;10172129;28;93286;-73
2023/03/08 08:06:59;;;;;;;;;;;15.80;54.10;;;;;;10171106;28;92700;-72
2023/03/08 08:12:04;;;;;;;;;;;15.70;54.10;;;;;;10171007;28;93543;-73
2023/03/08 08:17:05;;;;;;;;;;;15.60;54.10;;;;;;10172704;28;94326;-72
2023/03/08 08:22:07;;;;;;;;;;;15.60;54.20;;;;;;10169208;28;95891;-72
2023/03/08 08:27:09;;;;;;;;;;;15.50;54.30;;;;;;10172077;28;93624;-73
2023/03/08 08:32:10;;;;;;;;;;;15.50;54.40;;;;;;10171216;28;93914;-73
2023/03/08 08:37:12;;;;;;;;;;;15.50;54.50;;;;;;10153649;28;93651;-72
2023/03/08 08:42:14;;;;;;;;;;;15.40;54.50;;;;;;10171051;28;94180;-72
2023/03/08 08:47:16;;;;;;;;;;;15.30;54.50;;;;;;10153027;28;93280;-72
2023/03/08 08:52:18;;;;;;;;;;;15.30;54.50;;;;;;10172290;28;94818;-70
2023/03/08 08:57:19;;;;;;;;;;;15.20;55.90;;;;;;10171549;28;93704;-72
2023/03/08 09:02:21;;;;;;;;;;;15.20;54.90;;;;;;10170227;28;93284;-73
2023/03/08 09:07:23;;;;;;;;;;;15.20;54.70;;;;;;10170808;28;94385;-72
2023/03/08 09:12:24;;;;;;;;;;;15.20;54.90;;;;;;10168493;28;96053;-72
2023/03/08 09:17:26;;;;;;;;;;;15.10;54.80;;;;;;10153933;28;92769;-73
2023/03/08 09:22:28;;;;;;;;;;;15.10;54.90;;;;;;10169778;28;93432;-73
2023/03/08 09:27:30;;;;;;;;;;;15.00;54.90;;;;;;10169730;28;94481;-73
2023/03/08 09:32:31;;;;;;;;;;;15.00;54.90;;;;;;10170340;28;94302;-73
2023/03/08 09:37:33;;;;;;;;;;;15.00;55.00;;;;;;10168809;28;93587;-73
2023/03/08 09:42:37;;;;;;;;;;;15.00;55.20;;;;;;10169828;28;93765;-72
2023/03/08 09:47:48;;;;;;;;;;;14.90;55.30;;;;;;10169281;28;95694;-72
2023/03/08 09:52:53;;;;;;;;;;;14.90;55.20;;;;;;10169554;28;94614;-72
2023/03/08 09:57:56;;;;;;;;;;;14.90;55.30;;;;;;10167894;28;93440;-70
2023/03/08 10:03:16;;;;;;;;;;;14.90;55.40;;;;;;10165223;28;95919;-71
2023/03/08 10:08:24;;;;;;;;;;;14.80;55.40;;;;;;10167220;28;113884;-72
2023/03/08 10:13:29;;;;;;;;;;;14.90;55.40;;;;;;10168212;28;93458;-72
2023/03/08 10:18:49;;;;;;;;;;;14.80;55.50;;;;;;10168099;28;93531;-72
2023/03/08 10:24:03;;;;;;;;;;;14.80;55.50;;;;;;10167415;28;93507;-71
2023/03/08 10:29:05;;;;;;;;;;;14.80;55.50;;;;;;10166749;28;93635;-71
2023/03/08 10:34:09;;;;;;;;;;;14.80;55.50;;;;;;10167886;28;92877;-72
2023/03/08 10:39:12;;;;;;;;;;;14.80;55.60;;;;;;10168809;28;93953;-71
2023/03/08 10:44:32;;;;;;;;;;;14.90;55.60;;;;;;10166397;28;93956;-71
2023/03/08 10:49:34;;;;;;;;;;;14.90;55.60;;;;;;10166675;28;94630;-71
2023/03/08 10:54:36;;;;;;;;;;;14.90;55.80;;;;;;10165131;28;95929;-71
2023/03/08 10:59:37;;;;;;;;;;;14.90;55.70;;;;;;10167675;28;93312;-73
2023/03/08 11:04:49;;;;;;;;;;;14.90;55.80;;;;;;10165778;28;93579;-73
2023/03/08 11:09:51;;;;;;;;;;;14.90;55.80;;;;;;10166877;28;93689;-72
2023/03/08 11:14:53;;;;;;;;;;;14.80;55.80;;;;;;10165957;28;94251;-72
2023/03/08 11:20:09;;;;;;;;;;;14.90;55.90;;;;;;10149411;28;94691;-72
2023/03/08 11:25:18;;;;;;;;;;;14.90;55.90;;;;;;10166295;28;93870;-72
2023/03/08 11:30:42;;;;;;;;;;;14.80;55.90;;;;;;10165851;28;92179;-67
2023/03/08 11:35:47;;;;;;;;;;;14.90;56.10;;;;;;10149315;28;94447;-75
2023/03/08 11:41:07;;;;;;;;;;;14.90;57.40;;;;;;10165567;28;93590;-73
2023/03/08 11:46:16;;;;;;;;;;;15.00;57.30;;;;;;10162938;28;95658;-73
2023/03/08 11:51:26;;;;;;;;;;;15.00;56.60;;;;;;10165982;28;93635;-74
2023/03/08 11:56:33;;;;;;;;;;;15.10;56.50;;;;;;10165520;28;93378;-75
2023/03/08 12:01:35;;;;;;;;;;;15.10;56.50;;;;;;10165549;28;93854;-74
2023/03/08 12:06:39;;;;;;;;;;;15.10;56.40;;;;;;10164958;28;93883;-74
2023/03/08 12:11:46;;;;;;;;;;;15.10;56.40;;;;;;10165506;28;93558;-75
2023/03/08 12:16:55;;;;;;;;;;;15.10;56.50;;;;;;10165382;28;94216;-75
2023/03/08 12:22:32;;;;;;;;;;;15.00;56.60;;;;;;10166240;28;92753;-76
2023/03/08 12:27:34;;;;;;;;;;;15.00;56.50;;;;;;10118931;28;93488;-75
2023/03/08 12:32:36;;;;;;;;;;;15.00;56.50;;;;;;10171920;28;93459;-76
2023/03/08 12:37:39;;;;;;;;;;;15.00;56.60;;;;;;10169368;28;95817;-75
2023/03/08 12:42:41;;;;;;;;;;;15.00;56.60;;;;;;10171537;28;92541;-76
2023/03/08 12:47:52;;;;;;;;;;;14.90;56.50;;;;;;10171399;28;94376;-76
2023/03/08 12:52:55;;;;;;;;;;;14.90;56.70;;;;;;10153702;28;94742;-72
2023/03/08 12:57:59;;;;;;;;;;;14.90;56.70;;;;;;10170927;28;93460;-75
2023/03/08 13:03:03;;;;;;;;;;;14.90;56.80;;;;;;10170289;28;94446;-74
2023/03/08 13:08:16;;;;;;;;;;;14.90;56.80;;;;;;10170191;28;93203;-74
2023/03/08 13:13:36;;;;;;;;;;;14.90;56.80;;;;;;10153533;28;92638;-76
2023/03/08 13:18:44;;;;;;;;;;;14.80;56.90;;;;;;10170418;28;94426;-76
2023/03/08 13:23:55;;;;;;;;;;;14.80;56.90;;;;;;10135969;28;93026;-75
2023/03/08 13:28:57;;;;;;;;;;;14.80;56.90;;;;;;10167282;28;95864;-75
2023/03/08 13:33:59;;;;;;;;;;;14.80;56.90;;;;;;10168923;28;94773;-75
2023/03/08 13:39:03;;;;;;;;;;;14.80;57.00;;;;;;10168523;28;93237;-75
2023/03/08 13:44:15;;;;;;;;;;;14.80;57.10;;;;;;10168238;28;93464;-74
2023/03/08 13:49:26;;;;;;;;;;;14.70;57.00;;;;;;10167549;28;94123;-75
2023/03/08 13:54:30;;;;;;;;;;;14.70;57.00;;;;;;10168990;28;93786;-76
2023/03/08 13:59:34;;;;;;;;;;;14.70;57.10;;;;;;10169105;28;93464;-76
2023/03/08 14:04:41;;;;;;;;;;;14.70;57.20;;;;;;10152678;28;93816;-77
2023/03/08 14:09:42;;;;;;;;;;;14.70;57.10;;;;;;10151781;28;94580;-73
2023/03/08 14:14:47;;;;;;;;;;;14.70;57.10;;;;;;10168300;28;93345;-74
2023/03/08 14:19:53;;;;;;;;;;;14.70;57.20;;;;;;10165979;28;96763;-76
2023/03/08 14:24:58;;;;;;;;;;;14.70;57.20;;;;;;10168336;28;94439;-74
2023/03/08 14:30:02;;;;;;;;;;;14.70;57.30;;;;;;10167682;28;93523;-75
2023/03/08 14:35:13;;;;;;;;;;;14.70;57.30;;;;;;10168085;28;93262;-73
2023/03/08 14:40:22;;;;;;;;;;;14.70;57.50;;;;;;10168705;28;93416;-72
2023/03/08 14:45:29;;;;;;;;;;;14.70;57.60;;;;;;10166583;28;93850;-72
2023/03/08 14:50:32;;;;;;;;;;;14.70;57.30;;;;;;10168706;28;93441;-72
2023/03/08 14:55:34;;;;;;;;;;;14.70;57.50;;;;;;10150658;28;92661;-73
2023/03/08 15:00:47;;;;;;;;;;;14.70;57.40;;;;;;10166929;28;94186;-74
2023/03/08 15:05:48;;;;;;;;;;;14.70;57.50;;;;;;10166651;28;93318;-74
2023/03/08 15:10:50;;;;;;;;;;;14.70;57.40;;;;;;10164316;28;95299;-74
2023/03/08 15:15:52;;;;;;;;;;;14.70;57.40;;;;;;10166626;28;93673;-73
2023/03/08 15:20:54;;;;;;;;;;;14.60;57.40;;;;;;10149732;28;93874;-73
2023/03/08 15:25:58;;;;;;;;;;;14.60;57.40;;;;;;10166080;28;94546;-75
2023/03/08 15:30:59;;;;;;;;;;;14.60;57.40;;;;;;10149366;28;93543;-74
2023/03/08 15:36:01;;;;;;;;;;;14.60;57.40;;;;;;10166260;28;94617;-69
2023/03/08 15:41:03;;;;;;;;;;;14.70;57.80;;;;;;10165984;28;94141;-72
2023/03/08 15:46:08;;;;;;;;;;;14.70;59.00;;;;;;10167420;28;93455;-74
2023/03/08 15:51:17;;;;;;;;;;;14.80;58.40;;;;;;10148094;28;94468;-72
2023/03/08 15:56:19;;;;;;;;;;;14.80;57.90;;;;;;10166926;28;94018;-73
2023/03/08 16:01:23;;;;;;;;;;;15.10;57.50;;;;;;10171728;28;96749;-73
2023/03/08 16:06:24;;;;;;;;;;;15.40;56.90;;;;;;10172359;28;94472;-73
2023/03/08 16:11:26;;;;;;;;;;;15.80;56.20;;;;;;10173584;28;93423;-74
2023/03/08 16:16:28;;;;;;;;;;;16.10;55.60;;;;;;10171245;28;92587;-73
2023/03/08 16:21:45;;;;;;;;;;;16.30;55.00;;;;;;10173358;28;93326;-73
2023/03/08 16:26:47;;;;;;;;;;;16.60;54.50;;;;;;10172924;28;92965;-73
2023/03/08 16:31:48;;;;;;;;;;;16.80;54.00;;;;;;10171788;28;93434;-73
2023/03/08 16:36:51;;;;;;;;;;;16.90;53.70;;;;;;10171735;28;94113;-71
2023/03/08 16:41:52;;;;;;;;;;;16.90;53.60;;;;;;10148078;28;94766;-74
2023/03/08 16:46:54;;;;;;;;;;;17.00;53.70;;;;;;10164718;28;94573;-70
2023/03/08 16:51:56;;;;;;;;;;;17.10;54.80;;;;;;10163688;28;95864;-71
2023/03/08 16:56:58;;;;;;;;;;;17.20;55.00;;;;;;10149839;28;93763;-69
2023/03/08 17:02:14;;;;;;;;;;;17.30;55.60;;;;;;10167032;28;94526;-71
2023/03/08 17:07:16;;;;;;;;;;;17.40;56.50;;;;;;10148842;28;94385;-70
2023/03/08 17:12:18;;;;;;;;;;;17.40;56.20;;;;;;10168391;28;93893;-68
2023/03/08 17:17:20;;;;;;;;;;;17.40;59.30;;;;;;10152237;28;94496;-70
2023/03/08 17:22:22;;;;;;;;;;;17.50;59.60;;;;;;10168881;28;93402;-70
2023/03/08 17:27:23;;;;;;;;;;;17.60;59.50;;;;;;10169177;28;92811;-69
2023/03/08 17:32:25;;;;;;;;;;;17.70;59.10;;;;;;10168836;28;94392;-70
2023/03/08 17:37:26;;;;;;;;;;;17.80;58.50;;;;;;10167832;28;93509;-70
2023/03/08 17:42:28;;;;;;;;;;;17.80;58.20;;;;;;10165509;28;95923;-71
2023/03/08 17:47:30;;;;;;;;;;;17.80;58.20;;;;;;10167700;28;93854;-72
2023/03/08 17:52:32;;;;;;;;;;;17.80;58.50;;;;;;10167065;28;93845;-70
2023/03/08 17:57:35;;;;;;;;;;;17.80;58.70;;;;;;10168180;28;93594;-71
2023/03/08 18:02:37;;;;;;;;;;;17.90;58.10;;;;;;10167004;28;94397;-70
2023/03/08 18:07:39;;;;;;;;;;;17.90;57.80;;;;;;10167314;28;94483;-70
2023/03/08 18:12:42;;;;;;;;;;;18.00;57.60;;;;;;10149705;28;93720;-68
2023/03/08 18:17:45;;;;;;;;;;;18.00;57.80;;;;;;10167100;28;92785;-71
2023/03/08 18:22:47;;;;;;;;;;;18.00;57.80;;;;;;10166217;28;93280;-70
2023/03/08 18:27:48;;;;;;;;;;;18.00;57.90;;;;;;10166884;28;94296;-70
2023/03/08 18:32:50;;;;;;;;;;;18.00;58.00;;;;;;10164263;28;95886;-69
2023/03/08 18:37:51;;;;;;;;;;;18.00;58.00;;;;;;10165856;28;94656;-68
2023/03/08 18:42:53;;;;;;;;;;;18.10;57.90;;;;;;10167501;28;93498;-71
2023/03/08 18:47:55;;;;;;;;;;;18.10;57.80;;;;;;10166363;28;94102;-69
2023/03/08 18:52:57;;;;;;;;;;;18.00;57.70;;;;;;10166139;28;93474;-73
2023/03/08 18:57:58;;;;;;;;;;;18.00;57.70;;;;;;10167350;28;94003;-69
2023/03/08 19:03:00;;;;;;;;;;;18.00;58.70;;;;;;10166137;28;93916;-68
2023/03/08 19:08:02;;;;;;;;;;;18.10;57.70;;;;;;10166412;28;93849;-69
2023/03/08 19:13:03;;;;;;;;;;;18.10;57.50;;;;;;10165523;28;93295;-69
2023/03/08 19:18:05;;;;;;;;;;;18.10;57.40;;;;;;10164457;28;94743;-69
2023/03/08 19:23:08;;;;;;;;;;;18.10;57.40;;;;;;10145114;28;97058;-68
2023/03/08 19:28:10;;;;;;;;;;;18.20;57.50;;;;;;10148816;28;94765;-69
2023/03/08 19:33:11;;;;;;;;;;;18.20;57.50;;;;;;10169537;28;94587;-70
2023/03/08 19:38:30;;;;;;;;;;;18.20;57.50;;;;;;10173628;28;94466;-69
2023/03/08 19:43:32;;;;;;;;;;;18.20;57.50;;;;;;10171789;28;94529;-70
2023/03/08 19:48:34;;;;;;;;;;;18.30;58.70;;;;;;10171979;28;94655;-70
2023/03/08 19:53:35;;;;;;;;;;;18.30;58.10;;;;;;10170819;28;94385;-70
2023/03/08 19:58:37;;;;;;;;;;;18.40;57.70;;;;;;10153185;28;91911;-70
2023/03/08 20:03:39;;;;;;;;;;;18.40;57.50;;;;;;10170704;28;92564;-71
2023/03/08 20:08:41;;;;;;;;;;;18.30;57.60;;;;;;10153705;28;94491;-71
2023/03/08 20:13:42;;;;;;;;;;;18.30;57.60;;;;;;10167383;28;95450;-71
2023/03/08 20:18:47;;;;;;;;;;;18.30;57.50;;;;;;10171960;28;93692;-70
2023/03/08 20:23:54;;;;;;;;;;;18.30;57.50;;;;;;10171098;28;94516;-70
2023/03/08 20:28:56;;;;;;;;;;;18.30;57.50;;;;;;10171147;28;93683;-71
2023/03/08 20:33:58;;;;;;;;;;;18.30;57.60;;;;;;10170263;28;94570;-71
2023/03/08 20:38:59;;;;;;;;;;;18.20;57.60;;;;;;10169017;28;93497;-72
2023/03/08 20:44:01;;;;;;;;;;;18.30;57.60;;;;;;10151919;28;93627;-71
2023/03/08 20:49:03;;;;;;;;;;;18.20;57.70;;;;;;10169584;28;92719;-70
2023/03/08 20:54:05;;;;;;;;;;;18.10;57.70;;;;;;10169113;28;94194;-70
2023/03/08 20:59:07;;;;;;;;;;;18.00;57.80;;;;;;10168706;28;93632;-71
2023/03/08 21:04:09;;;;;;;;;;;17.90;57.90;;;;;;10165585;28;95833;-70
2023/03/08 21:09:10;;;;;;;;;;;17.80;58.10;;;;;;10168861;28;93499;-69
2023/03/08 21:14:12;;;;;;;;;;;17.70;58.20;;;;;;10169444;28;94344;-72
2023/03/08 21:19:15;;;;;;;;;;;17.70;59.60;;;;;;10169400;28;95262;-70
2023/03/08 21:24:18;;;;;;;;;;;17.70;59.10;;;;;;10168674;28;93509;-71
2023/03/08 21:29:20;;;;;;;;;;;17.60;59.70;;;;;;10167650;28;93136;-75
2023/03/08 21:34:22;;;;;;;;;;;17.60;59.10;;;;;;10168657;28;93298;-76
2023/03/08 21:39:25;;;;;;;;;;;17.40;58.80;;;;;;10169629;28;93755;-75
2023/03/08 21:44:27;;;;;;;;;;;17.40;58.80;;;;;;10168343;28;93306;-75
2023/03/08 21:49:35;;;;;;;;;;;17.30;58.60;;;;;;10167304;28;93501;-75
2023/03/08 21:54:36;;;;;;;;;;;17.20;58.50;;;;;;10166264;28;97029;-77
2023/03/08 21:59:38;;;;;;;;;;;17.10;59.40;;;;;;10168674;28;93458;-76
2023/03/08 22:04:40;;;;;;;;;;;17.10;58.90;;;;;;10150436;28;93877;-76
2023/03/08 22:09:41;;;;;;;;;;;16.90;59.30;;;;;;10168852;28;94807;-77
2023/03/08 22:14:43;;;;;;;;;;;16.80;59.30;;;;;;10167215;28;94827;-77
2023/03/08 22:19:45;;;;;;;;;;;16.80;59.40;;;;;;10167591;28;93278;-77
2023/03/08 22:24:46;;;;;;;;;;;16.70;59.50;;;;;;10167359;28;94499;-76
2023/03/08 22:29:48;;;;;;;;;;;16.60;59.60;;;;;;10151237;28;93383;-77
2023/03/08 22:34:50;;;;;;;;;;;16.60;59.60;;;;;;10167704;28;94079;-76
2023/03/08 22:39:52;;;;;;;;;;;16.50;59.40;;;;;;10167090;28;94667;-76
2023/03/08 22:44:53;;;;;;;;;;;16.40;59.60;;;;;;10164605;28;96036;-76
2023/03/08 22:49:55;;;;;;;;;;;16.40;59.70;;;;;;10166228;28;93333;-76
2023/03/08 22:54:57;;;;;;;;;;;16.30;59.60;;;;;;10166707;28;93806;-76
2023/03/08 22:59:59;;;;;;;;;;;16.30;59.60;;;;;;10149272;28;94795;-76
2023/03/08 23:05:00;;;;;;;;;;;16.20;59.60;;;;;;10166140;28;94973;-77
2023/03/08 23:10:03;;;;;;;;;;;16.20;59.50;;;;;;10165871;28;94616;-76
2023/03/08 23:15:05;;;;;;;;;;;16.20;59.40;;;;;;10166671;28;93536;-75
2023/03/08 23:20:08;;;;;;;;;;;16.10;59.30;;;;;;10166704;28;92503;-76
2023/03/08 23:25:10;;;;;;;;;;;16.10;59.20;;;;;;10164661;28;93706;-76
2023/03/08 23:30:13;;;;;;;;;;;16.10;59.20;;;;;;10165916;28;93726;-77
2023/03/08 23:35:15;;;;;;;;;;;16.00;59.10;;;;;;10162790;28;96780;-76
2023/03/08 23:40:17;;;;;;;;;;;16.10;59.10;;;;;;10164786;28;93525;-76
2023/03/08 23:45:20;;;;;;;;;;;16.00;60.00;;;;;;10164550;28;93504;-76
2023/03/08 23:50:21;;;;;;;;;;;15.90;58.90;;;;;;10147872;28;93544;-76
2023/03/08 23:55:23;;;;;;;;;;;15.90;58.90;;;;;;10165082;28;94446;-76
